Time;durP1;ratioP1;P1;durP2;ratioP2;P2;SDS_P1;SDS_P2;PMS_P1;PMS_P2;Temp;Humidity;BMP_temperature;BMP_pressure;BME280_temperature;BME280_humidity;BME280_pressure;Samples;Min_cycle;Max_cycle;Signal;HPM_P1;HPM_P2
2021/06/23 00:00:52;;;;;;;17.40;15.38;;;;;;;18.39;96.54;99364.22;5148980;27;20193;-71
2021/06/23 00:03:18;;;;;;;18.55;16.38;;;;;;;18.62;95.21;99356.56;5151768;27;20195;-72
2021/06/23 00:05:45;;;;;;;18.33;15.55;;;;;;;18.12;97.60;99347.56;5151985;27;20276;-72
2021/06/23 00:08:13;;;;;;;16.50;14.90;;;;;;;18.25;97.75;99341.84;5147082;27;20189;-71
2021/06/23 00:10:40;;;;;;;16.92;15.13;;;;;;;18.40;96.87;99344.97;5149155;27;20291;-72
2021/06/23 00:13:08;;;;;;;17.20;15.38;;;;;;;18.50;96.16;99354.00;5152010;27;20193;-71
2021/06/23 00:15:36;;;;;;;19.20;17.15;;;;;;;18.67;95.26;99356.97;5154503;27;20600;-71
2021/06/23 00:18:04;;;;;;;16.08;14.48;;;;;;;18.80;93.65;99363.00;5153833;27;20287;-71
2021/06/23 00:20:31;;;;;;;15.52;13.82;;;;;;;18.80;92.85;99368.47;5147814;27;20189;-71
2021/06/23 00:22:58;;;;;;;17.77;15.90;;;;;;;18.42;94.89;99362.03;5151325;27;20185;-71
2021/06/23 00:25:26;;;;;;;16.92;15.23;;;;;;;18.51;95.38;99372.06;5145127;27;20202;-72
2021/06/23 00:27:53;;;;;;;16.23;14.52;;;;;;;18.51;94.93;99376.66;5154767;27;20631;-72
2021/06/23 00:30:20;;;;;;;13.55;12.25;;;;;;;18.69;94.34;99365.88;5152106;27;20208;-72
2021/06/23 00:32:49;;;;;;;17.05;14.15;;;;;;;18.51;94.94;99373.94;5139603;27;20194;-72
2021/06/23 00:35:15;;;;;;;15.98;14.20;;;;;;;18.11;97.77;99373.09;5146463;27;20589;-71
2021/06/23 00:37:42;;;;;;;16.05;14.45;;;;;;;18.20;98.12;99371.38;5146959;27;20228;-71
2021/06/23 00:40:10;;;;;;;15.98;14.30;;;;;;;18.36;97.22;99379.00;5154279;27;20189;-71
2021/06/23 00:42:41;;;;;;;16.70;14.90;;;;;;;18.48;95.32;99387.88;5153604;27;20184;-72
2021/06/23 00:45:09;;;;;;;17.48;15.65;;;;;;;18.55;95.20;99387.13;5150884;27;20189;-71
2021/06/23 00:47:36;;;;;;;17.73;14.45;;;;;;;18.68;94.07;99394.16;5149584;27;20682;-72
2021/06/23 00:50:06;;;;;;;16.13;14.45;;;;;;;18.65;93.70;99395.28;5147529;27;20197;-71
2021/06/23 00:52:33;;;;;;;15.23;13.73;;;;;;;18.62;93.17;99401.03;5150046;27;20196;-70
2021/06/23 00:55:00;;;;;;;16.00;14.18;;;;;;;18.71;93.37;99397.44;5140579;27;20539;-71
2021/06/23 00:57:27;;;;;;;15.40;13.88;;;;;;;18.83;92.08;99389.97;5154146;27;20228;-71
2021/06/23 00:59:56;;;;;;;16.40;14.70;;;;;;;18.66;92.71;99393.44;5156144;27;20574;-71
2021/06/23 01:02:24;;;;;;;15.13;12.77;;;;;;;18.54;93.71;99388.16;5147804;27;20253;-72
2021/06/23 01:04:52;;;;;;;16.52;14.88;;;;;;;18.53;93.88;99378.22;5157808;27;20313;-71
2021/06/23 01:07:19;;;;;;;15.90;14.20;;;;;;;18.62;93.40;99371.06;5147851;27;20216;-72
2021/06/23 01:09:46;;;;;;;15.93;14.13;;;;;;;18.56;93.50;99382.53;5158572;27;20598;-73
2021/06/23 01:12:27;;;;;;;16.08;14.48;;;;;;;18.67;93.43;99393.28;5149360;27;20193;-73
2021/06/23 01:14:59;;;;;;;19.70;13.70;;;;;;;18.79;92.27;99394.03;5157850;27;20528;-72
2021/06/23 01:17:28;;;;;;;14.38;12.88;;;;;;;19.02;90.68;99396.41;5151930;27;20273;-72
2021/06/23 01:20:03;;;;;;;16.40;13.50;;;;;;;18.95;90.32;99405.19;5152449;27;20197;-71
2021/06/23 01:22:31;;;;;;;14.82;13.43;;;;;;;18.75;91.68;99398.88;5157323;27;20220;-72
2021/06/23 01:24:59;;;;;;;14.07;12.77;;;;;;;18.76;91.84;99399.72;5157062;27;20534;-71
2021/06/23 01:27:26;;;;;;;14.98;13.48;;;;;;;18.75;91.61;99398.03;5155795;27;20709;-73
2021/06/23 01:29:53;;;;;;;15.13;12.98;;;;;;;18.76;91.81;99399.72;5157388;27;20217;-72
2021/06/23 01:32:20;;;;;;;14.43;13.02;;;;;;;18.81;91.30;99393.88;5156237;27;20280;-70
2021/06/23 01:34:47;;;;;;;16.75;13.10;;;;;;;18.73;91.54;99397.31;5148807;27;20689;-71
2021/06/23 01:37:13;;;;;;;16.13;13.27;;;;;;;18.75;91.67;99392.56;5151487;27;20189;-71
2021/06/23 01:39:41;;;;;;;14.00;12.60;;;;;;;18.76;91.43;99394.28;5157337;27;20226;-71
2021/06/23 01:42:08;;;;;;;15.80;13.48;;;;;;;18.44;94.06;99387.28;5157748;27;20199;-72
2021/06/23 01:44:35;;;;;;;15.27;13.68;;;;;;;18.31;94.95;99379.41;5156978;27;20221;-73
2021/06/23 01:47:03;;;;;;;17.20;14.35;;;;;;;18.17;96.77;99376.25;5152128;27;20200;-71
2021/06/23 01:49:30;;;;;;;17.45;14.10;;;;;;;18.26;96.18;99381.69;5156863;27;20259;-71
2021/06/23 01:51:57;;;;;;;15.68;14.05;;;;;;;18.43;94.95;99384.69;5156150;27;20205;-70
2021/06/23 01:54:23;;;;;;;14.63;13.23;;;;;;;18.58;93.59;99377.78;5156137;27;20277;-71
2021/06/23 01:56:51;;;;;;;15.15;13.65;;;;;;;18.58;93.34;99376.94;5155507;27;20229;-70
2021/06/23 01:59:18;;;;;;;17.60;14.27;;;;;;;18.41;93.32;99375.84;5157082;27;20189;-72
2021/06/23 02:01:52;;;;;;;19.58;14.13;;;;;;;18.34;93.75;99373.66;5151354;27;20222;-72
2021/06/23 02:04:41;;;;;;;17.25;14.82;;;;;;;18.13;96.28;99370.22;5148347;27;20284;-71
2021/06/23 02:07:52;;;;;;;15.57;13.98;;;;;;;18.19;95.81;99374.25;5150389;27;20223;-71
2021/06/23 02:11:00;;;;;;;15.82;14.02;;;;;;;18.40;94.25;99369.50;5111432;27;20205;-71
2021/06/23 02:14:02;;;;;;;15.13;13.73;;;;;;;18.46;93.44;99368.94;5067667;27;20192;-72
2021/06/23 02:16:33;;;;;;;14.43;12.90;;;;;;;18.10;95.52;99368.66;5132762;27;20208;-71
2021/06/23 02:19:02;;;;;;;16.17;14.43;;;;;;;18.09;96.30;99368.78;5136367;27;20226;-72
2021/06/23 02:21:30;;;;;;;17.15;14.80;;;;;;;17.94;97.51;99375.66;5128200;27;20273;-72
2021/06/23 02:23:58;;;;;;;15.73;14.02;;;;;;;18.12;97.08;99372.09;5135647;27;20551;-72
2021/06/23 02:26:25;;;;;;;16.95;14.88;;;;;;;18.07;97.13;99366.22;5135344;27;20192;-72
2021/06/23 02:28:52;;;;;;;17.70;15.90;;;;;;;17.96;97.71;99376.41;5135016;27;20219;-71
2021/06/23 02:31:19;;;;;;;16.05;14.38;;;;;;;17.91;98.69;99379.53;5135286;27;20600;-70
2021/06/23 02:34:02;;;;;;;19.60;14.95;;;;;;;17.98;98.37;99371.66;5131220;27;20199;-72
2021/06/23 02:36:28;;;;;;;17.23;15.50;;;;;;;18.06;97.65;99375.38;5130241;27;20210;-71
2021/06/23 02:38:55;;;;;;;16.33;14.63;;;;;;;18.09;97.36;99369.66;5135113;27;20194;-72
2021/06/23 02:41:22;;;;;;;15.75;14.05;;;;;;;18.31;95.20;99389.44;5135465;27;20204;-70
2021/06/23 02:43:49;;;;;;;16.00;14.40;;;;;;;18.06;96.59;99385.41;5134920;27;20221;-72
2021/06/23 02:46:17;;;;;;;15.27;13.82;;;;;;;18.13;97.18;99382.00;5131093;27;20190;-71
2021/06/23 02:48:43;;;;;;;17.55;14.32;;;;;;;18.51;94.51;99393.88;5127837;27;20191;-71
2021/06/23 02:51:19;;;;;;;15.90;14.27;;;;;;;18.60;93.08;99388.56;5134913;27;20394;-70
2021/06/23 02:53:47;;;;;;;16.30;14.60;;;;;;;18.57;92.54;99391.59;5132857;27;20641;-70
2021/06/23 02:56:15;;;;;;;15.70;13.18;;;;;;;18.57;92.93;99397.06;5135841;27;20249;-71
2021/06/23 02:58:43;;;;;;;15.85;13.10;;;;;;;18.62;92.38;99395.59;5135441;27;20296;-71
2021/06/23 03:01:11;;;;;;;15.55;14.05;;;;;;;18.52;92.38;99401.06;5128946;27;20186;-71
2021/06/23 03:03:38;;;;;;;16.17;14.60;;;;;;;18.30;93.98;99398.63;5129224;27;20247;-72
2021/06/23 03:06:06;;;;;;;14.93;13.32;;;;;;;18.46;94.41;99392.59;5132786;27;20191;-70
2021/06/23 03:08:34;;;;;;;15.95;13.73;;;;;;;18.32;94.24;99388.44;5132935;27;20186;-71
2021/06/23 03:11:01;;;;;;;14.98;13.35;;;;;;;18.30;93.82;99394.03;5134104;27;20213;-72
2021/06/23 03:13:28;;;;;;;17.05;15.18;;;;;;;18.38;94.14;99404.22;5135446;27;20185;-72
2021/06/23 03:15:55;;;;;;;22.30;14.68;;;;;;;18.63;91.27;99405.50;5124684;27;20181;-72
2021/06/23 03:18:22;;;;;;;15.88;14.13;;;;;;;18.49;92.11;99412.25;5135226;27;20197;-72
2021/06/23 03:20:49;;;;;;;16.48;14.77;;;;;;;18.31;94.29;99403.06;5133021;27;20239;-72
2021/06/23 03:23:16;;;;;;;16.65;14.27;;;;;;;17.96;96.71;99409.94;5134161;27;20193;-71
2021/06/23 03:25:44;;;;;;;17.80;15.55;;;;;;;18.13;96.22;99408.38;5133742;27;20194;-71
2021/06/23 03:28:12;;;;;;;16.67;14.88;;;;;;;18.20;95.58;99404.06;5126794;27;20547;-70
2021/06/23 03:30:38;;;;;;;17.13;14.38;;;;;;;18.39;94.18;99408.69;5131147;27;20229;-71
2021/06/23 03:33:06;;;;;;;16.60;14.27;;;;;;;18.20;95.13;99414.09;5126790;27;20189;-73
2021/06/23 03:35:32;;;;;;;16.05;14.30;;;;;;;18.09;95.89;99402.34;5124469;27;20232;-72
2021/06/23 03:37:59;;;;;;;20.00;15.77;;;;;;;18.05;96.20;99403.63;5133816;27;20221;-71
2021/06/23 03:40:26;;;;;;;16.90;15.10;;;;;;;18.22;95.22;99407.50;5125972;27;20280;-72
2021/06/23 03:42:54;;;;;;;17.30;14.38;;;;;;;18.19;95.34;99415.13;5126431;27;20284;-72
2021/06/23 03:45:21;;;;;;;17.65;14.88;;;;;;;18.36;95.50;99419.00;5133493;27;20631;-73
2021/06/23 03:47:48;;;;;;;15.90;14.20;;;;;;;18.58;92.54;99426.88;5130297;27;20185;-72
2021/06/23 03:50:17;;;;;;;16.50;14.70;;;;;;;18.54;91.96;99422.72;5133406;27;20217;-72
2021/06/23 03:52:44;;;;;;;19.08;15.43;;;;;;;18.61;91.28;99429.34;5129962;27;20202;-73
2021/06/23 03:55:19;;;;;;;17.25;15.45;;;;;;;18.70;91.03;99428.47;5125833;27;20200;-72
2021/06/23 03:57:48;;;;;;;15.75;14.15;;;;;;;18.75;90.79;99434.34;5131847;27;20203;-72
2021/06/23 04:00:17;;;;;;;16.25;14.55;;;;;;;18.86;89.37;99430.63;5130152;27;20185;-71
2021/06/23 04:02:43;;;;;;;16.63;14.93;;;;;;;18.79;89.69;99434.94;5126349;27;20209;-71
2021/06/23 04:05:11;;;;;;;19.60;15.55;;;;;;;18.78;89.69;99435.09;5131963;27;20757;-69
2021/06/23 04:07:37;;;;;;;17.77;15.52;;;;;;;18.63;89.96;99430.06;5134298;27;20189;-72
2021/06/23 04:10:05;;;;;;;18.05;15.05;;;;;;;18.74;89.59;99434.47;5133596;27;20193;-70
2021/06/23 04:12:32;;;;;;;16.52;14.63;;;;;;;18.78;89.39;99440.53;5134162;27;20283;-72
2021/06/23 04:14:59;;;;;;;17.52;14.55;;;;;;;18.79;89.79;99439.50;5133782;27;20183;-73
2021/06/23 04:17:27;;;;;;;15.45;13.60;;;;;;;18.96;88.24;99445.09;5127952;27;20275;-72
2021/06/23 04:19:53;;;;;;;18.10;13.93;;;;;;;18.89;88.45;99446.69;5133343;27;20221;-70
2021/06/23 04:22:21;;;;;;;16.98;15.05;;;;;;;18.84;88.69;99446.28;5132107;27;20839;-72
2021/06/23 04:24:47;;;;;;;15.80;13.53;;;;;;;18.95;87.93;99454.28;5133117;27;20544;-72
2021/06/23 04:27:14;;;;;;;14.40;12.90;;;;;;;18.94;87.28;99451.69;5126506;28;20519;-71
2021/06/23 04:29:41;;;;;;;15.85;14.15;;;;;;;18.93;87.31;99453.56;5134193;28;20277;-71
2021/06/23 04:32:08;;;;;;;16.30;13.90;;;;;;;18.81;87.81;99437.50;5131088;27;20218;-71
2021/06/23 04:34:36;;;;;;;16.92;14.40;;;;;;;18.51;90.38;99445.69;5130143;28;20222;-72
2021/06/23 04:37:03;;;;;;;15.57;13.98;;;;;;;18.64;89.43;99447.28;5126412;28;20599;-73
2021/06/23 04:39:29;;;;;;;16.67;13.43;;;;;;;18.66;89.35;99453.44;5132786;28;20191;-71
2021/06/23 04:41:56;;;;;;;16.02;14.10;;;;;;;18.79;88.65;99461.34;5133385;28;20197;-71
2021/06/23 04:44:22;;;;;;;17.00;13.23;;;;;;;18.68;89.08;99454.16;5124609;27;20834;-71
2021/06/23 04:46:49;;;;;;;17.70;14.40;;;;;;;18.76;88.96;99462.47;5117523;28;20182;-71
2021/06/23 04:49:16;;;;;;;17.40;14.52;;;;;;;18.81;88.49;99462.06;5128454;28;20191;-71
2021/06/23 04:51:44;;;;;;;17.92;15.20;;;;;;;18.67;89.30;99452.41;5114113;28;20218;-71
2021/06/23 04:54:11;;;;;;;22.17;14.93;;;;;;;18.66;89.39;99459.75;5128902;28;20226;-71
2021/06/23 04:56:37;;;;;;;18.80;14.18;;;;;;;18.62;89.87;99463.75;5128825;28;20694;-71
2021/06/23 04:59:04;;;;;;;17.80;15.90;;;;;;;18.81;88.74;99462.91;5127553;28;20222;-71
2021/06/23 05:01:31;;;;;;;18.80;15.50;;;;;;;18.56;90.26;99472.50;5125312;28;20280;-71
2021/06/23 05:03:57;;;;;;;15.60;14.00;;;;;;;18.74;89.36;99472.66;5129328;28;20315;-71
2021/06/23 05:06:24;;;;;;;14.30;12.68;;;;;;;18.81;88.50;99478.41;5131885;28;20273;-70
2021/06/23 05:08:52;;;;;;;16.73;14.85;;;;;;;18.63;88.73;99470.94;5131713;28;20298;-71
2021/06/23 05:11:19;;;;;;;17.35;13.98;;;;;;;18.70;87.33;99476.66;5121349;28;20915;-71
2021/06/23 05:13:45;;;;;;;17.45;14.40;;;;;;;18.46;89.27;99471.66;5131891;28;20670;-70
2021/06/23 05:16:12;;;;;;;16.58;13.65;;;;;;;18.60;88.91;99475.81;5132801;27;20312;-73
2021/06/23 05:18:40;;;;;;;20.87;15.93;;;;;;;18.57;89.70;99476.97;5121967;28;20703;-71
2021/06/23 05:21:06;;;;;;;17.35;14.52;;;;;;;18.80;87.92;99477.56;5132425;28;20425;-72
2021/06/23 05:23:34;;;;;;;17.85;14.80;;;;;;;18.96;86.88;99480.56;5133013;28;20231;-71
2021/06/23 05:26:02;;;;;;;19.10;14.73;;;;;;;19.11;85.78;99475.50;5132976;28;20225;-69
2021/06/23 05:28:28;;;;;;;21.70;15.52;;;;;;;18.84;86.13;99476.28;5133759;28;20442;-70
2021/06/23 05:30:55;;;;;;;20.00;15.80;;;;;;;18.87;86.86;99470.50;5133749;28;20229;-71
2021/06/23 05:33:22;;;;;;;15.65;13.02;;;;;;;18.69;87.05;99473.09;5133871;28;20252;-71
2021/06/23 05:35:48;;;;;;;16.73;13.40;;;;;;;18.46;88.23;99477.97;5122857;28;20210;-71
2021/06/23 05:38:15;;;;;;;16.02;14.13;;;;;;;18.40;89.62;99481.25;5087963;28;73701;-71
2021/06/23 05:40:42;;;;;;;17.73;14.38;;;;;;;18.80;87.70;99476.72;5090947;28;20233;-72
2021/06/23 05:43:10;;;;;;;15.80;13.90;;;;;;;18.98;86.34;99468.66;5091335;28;20282;-71
2021/06/23 05:45:36;;;;;;;15.32;13.27;;;;;;;19.27;84.79;99479.50;5093780;28;20203;-72
2021/06/23 05:48:04;;;;;;;15.95;13.13;;;;;;;19.14;85.09;99479.81;5095587;28;20195;-72
2021/06/23 05:50:30;;;;;;;29.48;14.20;;;;;;;19.11;85.18;99475.50;5094521;28;20227;-72
2021/06/23 05:52:57;;;;;;;15.07;12.15;;;;;;;18.98;85.17;99482.28;5094146;28;20203;-73
2021/06/23 05:55:24;;;;;;;15.43;13.02;;;;;;;18.99;84.23;99479.41;5094503;28;20532;-72
2021/06/23 05:57:52;;;;;;;15.30;12.70;;;;;;;19.04;84.00;99478.97;5094599;28;20202;-70
2021/06/23 06:00:21;;;;;;;13.70;12.30;;;;;;;19.41;83.02;99487.22;5094347;28;20242;-71
2021/06/23 06:02:48;;;;;;;13.00;11.70;;;;;;;19.70;81.16;99489.88;5095944;28;21211;-71
2021/06/23 06:05:15;;;;;;;15.23;11.17;;;;;;;19.58;79.83;99494.63;5096211;28;20477;-72
2021/06/23 06:07:42;;;;;;;13.33;11.93;;;;;;;19.71;79.60;99493.47;5094527;28;20516;-71
2021/06/23 06:10:13;;;;;;;14.00;11.52;;;;;;;19.24;80.66;99497.00;5094865;28;20471;-72
2021/06/23 06:12:39;;;;;;;13.83;10.53;;;;;;;19.19;81.85;99498.47;5091751;28;20260;-70
2021/06/23 06:15:07;;;;;;;13.57;11.67;;;;;;;19.58;80.04;99507.41;5093910;28;20503;-72
2021/06/23 06:17:36;;;;;;;14.83;11.80;;;;;;;19.90;79.22;99512.50;5094002;28;20513;-71
2021/06/23 06:20:03;;;;;;;11.87;10.67;;;;;;;20.15;76.72;99510.94;5094347;28;20449;-70
2021/06/23 06:22:30;;;;;;;12.87;11.47;;;;;;;20.22;76.30;99510.31;5094071;28;20429;-71
2021/06/23 06:24:57;;;;;;;13.80;10.57;;;;;;;20.41;75.04;99501.97;5093972;28;20437;-71
2021/06/23 06:27:24;;;;;;;11.70;10.33;;;;;;;20.49;73.97;99509.44;5094095;28;20456;-71
2021/06/23 06:29:50;;;;;;;11.97;10.90;;;;;;;20.82;73.12;99522.41;5094173;28;20449;-70
2021/06/23 06:32:17;;;;;;;14.00;9.50;;;;;;;20.85;71.64;99524.00;5093569;28;20481;-71
2021/06/23 06:34:45;;;;;;;12.17;9.80;;;;;;;20.65;72.54;99519.72;5094322;28;20438;-70
2021/06/23 06:37:11;;;;;;;12.43;10.53;;;;;;;20.83;71.86;99521.41;5094889;28;20437;-73
2021/06/23 06:39:38;;;;;;;11.10;10.00;;;;;;;20.84;72.25;99514.06;5093549;28;20448;-71
2021/06/23 06:42:06;;;;;;;11.00;9.90;;;;;;;20.77;72.29;99507.50;5094637;28;20992;-71
2021/06/23 06:44:33;;;;;;;34.47;10.73;;;;;;;20.46;74.11;99502.38;5095461;28;20448;-72
2021/06/23 06:47:05;;;;;;;14.50;9.57;;;;;;;20.28;75.34;99512.44;5093308;28;20548;-71
2021/06/23 06:49:32;;;;;;;13.07;9.70;;;;;;;20.14;75.76;99517.38;5094490;28;20442;-71
2021/06/23 06:52:01;;;;;;;12.00;9.80;;;;;;;20.34;75.18;99529.06;5094473;28;21071;-72
2021/06/23 06:54:28;;;;;;;13.03;10.30;;;;;;;20.38;74.57;99530.50;5092616;28;20458;-72
2021/06/23 06:56:56;;;;;;;14.90;10.40;;;;;;;20.46;74.01;99524.25;5093226;28;20533;-71
2021/06/23 06:59:23;;;;;;;11.17;10.07;;;;;;;20.54;73.50;99524.34;5093574;28;20442;-71
2021/06/23 07:01:50;;;;;;;11.87;10.27;;;;;;;20.54;73.40;99529.81;5094754;28;20506;-72
2021/06/23 07:04:17;;;;;;;12.17;11.07;;;;;;;20.47;73.44;99536.06;5094078;28;20482;-71
2021/06/23 07:06:44;;;;;;;11.97;10.80;;;;;;;20.67;73.18;99537.69;5093176;28;20441;-73
2021/06/23 07:09:12;;;;;;;11.53;10.47;;;;;;;20.68;73.07;99533.06;5092362;28;20545;-72
2021/06/23 07:11:39;;;;;;;14.13;12.73;;;;;;;20.74;73.24;99541.50;5093286;28;20911;-72
2021/06/23 07:14:06;;;;;;;12.47;11.17;;;;;;;20.99;72.23;99545.34;5093771;28;20846;-73
2021/06/23 07:16:33;;;;;;;11.90;10.00;;;;;;;21.08;71.73;99539.94;5091610;28;20920;-71
2021/06/23 07:19:00;;;;;;;11.03;9.93;;;;;;;20.71;73.22;99550.00;5094202;28;20518;-72
2021/06/23 07:21:27;;;;;;;12.37;11.17;;;;;;;20.47;74.77;99555.22;5093229;28;20437;-72
2021/06/23 07:23:57;;;;;;;19.43;17.47;;;;;;;20.95;72.33;99549.41;5093640;28;20485;-71
2021/06/23 07:26:26;;;;;;;13.73;12.20;;;;;;;21.28;70.92;99552.44;5093067;28;20921;-71
2021/06/23 07:28:54;;;;;;;12.40;11.13;;;;;;;21.19;71.08;99553.38;5091768;28;20438;-71
2021/06/23 07:31:26;;;;;;;12.00;10.80;;;;;;;20.81;72.31;99555.44;5092087;28;20561;-72
2021/06/23 07:34:01;;;;;;;11.83;10.73;;;;;;;20.73;73.66;99558.91;5092288;28;20440;-72
2021/06/23 07:36:36;;;;;;;11.80;10.60;;;;;;;21.03;72.22;99565.91;5091872;28;20552;-73
2021/06/23 07:39:06;;;;;;;11.07;9.93;;;;;;;21.12;71.25;99566.84;5092398;28;20448;-72
2021/06/23 07:41:34;;;;;;;11.23;10.03;;;;;;;21.13;70.86;99563.06;5092247;28;20495;-71
2021/06/23 07:44:01;;;;;;;13.40;9.53;;;;;;;20.73;72.98;99558.91;5092376;28;20533;-72
2021/06/23 07:46:30;;;;;;;12.73;11.53;;;;;;;20.88;72.87;99559.25;5092128;28;20961;-72
2021/06/23 07:48:57;;;;;;;12.60;11.30;;;;;;;20.88;71.48;99563.88;5092084;28;20446;-71
2021/06/23 07:51:29;;;;;;;12.57;11.37;;;;;;;20.78;71.84;99559.34;5092518;28;20932;-71
2021/06/23 08:00:59;;;;;;;14.67;13.33;;;;;;;21.41;69.63;99563.88;5084309;28;20438;-70
2021/06/23 08:08:15;;;;;;;12.20;11.00;;;;;;;22.41;65.04;99566.13;5089379;28;20487;-74
2021/06/23 08:10:45;;;;;;;13.20;11.90;;;;;;;22.73;63.91;99572.75;5091992;28;20453;-72
2021/06/23 08:13:14;;;;;;;13.10;11.70;;;;;;;23.00;62.72;99560.66;5091568;28;20539;-71
2021/06/23 08:15:44;;;;;;;11.30;10.10;;;;;;;23.18;61.89;99558.59;5091021;28;20481;-72
2021/06/23 08:18:15;;;;;;;13.20;11.90;;;;;;;23.39;60.96;99562.72;5092183;28;20433;-70
2021/06/23 08:20:43;;;;;;;15.27;11.30;;;;;;;23.70;59.98;99568.34;5091479;28;20457;-71
2021/06/23 08:23:10;;;;;;;14.00;11.00;;;;;;;23.84;59.37;99564.91;5091236;28;20445;-70
2021/06/23 08:25:37;;;;;;;12.20;11.00;;;;;;;23.82;59.19;99566.97;5090433;28;20811;-71
2021/06/23 08:28:04;;;;;;;11.10;10.10;;;;;;;24.03;58.48;99558.13;5092692;28;20851;-70
2021/06/23 08:30:34;;;;;;;11.07;10.17;;;;;;;23.39;59.60;99557.22;5092070;28;20453;-73
2021/06/23 08:33:01;;;;;;;12.97;11.77;;;;;;;23.66;60.53;99564.22;5091783;28;20557;-70
2021/06/23 08:35:28;;;;;;;14.53;11.00;;;;;;;23.87;59.31;99556.28;5088358;28;20514;-72
2021/06/23 08:37:55;;;;;;;10.20;9.30;;;;;;;23.68;60.17;99565.75;5092565;28;20433;-72
2021/06/23 08:40:24;;;;;;;11.90;10.73;;;;;;;23.66;60.03;99559.56;5091954;28;20457;-71
2021/06/23 08:42:50;;;;;;;11.87;10.87;;;;;;;23.68;59.77;99565.75;5092087;28;20438;-72
2021/06/23 08:45:17;;;;;;;11.43;10.43;;;;;;;23.36;60.34;99566.66;5091823;28;20462;-71
2021/06/23 08:47:47;;;;;;;9.50;8.77;;;;;;;23.55;60.00;99561.84;5091317;28;20533;-70
2021/06/23 08:50:15;;;;;;;11.77;10.67;;;;;;;23.50;60.24;99567.84;5091013;28;20499;-72
2021/06/23 08:52:42;;;;;;;11.00;10.07;;;;;;;23.58;59.74;99569.72;5090498;28;20612;-71
2021/06/23 08:55:10;;;;;;;11.63;10.53;;;;;;;23.60;59.90;99573.16;5091033;28;20438;-71
2021/06/23 08:57:37;;;;;;;9.80;8.90;;;;;;;23.35;60.74;99564.06;5092483;28;20808;-72
2021/06/23 09:00:06;;;;;;;10.47;9.50;;;;;;;23.20;61.19;99569.38;5091390;28;20459;-72
2021/06/23 09:02:34;;;;;;;11.57;10.57;;;;;;;23.47;60.95;99562.69;5091663;28;20569;-72
2021/06/23 09:05:06;;;;;;;11.50;10.50;;;;;;;23.20;61.47;99555.66;5088722;28;20489;-74
2021/06/23 09:07:44;;;;;;;10.60;9.60;;;;;;;23.26;60.93;99561.31;5091807;28;20448;-72
2021/06/23 09:10:34;;;;;;;9.47;8.57;;;;;;;23.15;60.81;99555.31;5091466;28;20793;-73
2021/06/23 09:13:18;;;;;;;9.60;8.50;;;;;;;23.81;59.48;99557.00;5090434;28;20485;-74
2021/06/23 09:15:49;;;;;;;9.83;8.73;;;;;;;24.33;57.80;99561.97;5090831;28;20795;-71
2021/06/23 09:18:18;;;;;;;11.10;9.87;;;;;;;24.55;56.88;99552.06;5093370;28;20472;-72
2021/06/23 09:20:47;;;;;;;10.10;9.30;;;;;;;24.80;56.01;99548.31;5094830;28;20464;-72
2021/06/23 09:23:14;;;;;;;9.90;9.10;;;;;;;24.61;56.56;99553.25;5094499;28;20480;-72
2021/06/23 09:25:45;;;;;;;9.87;9.07;;;;;;;24.76;56.35;99556.06;5095900;28;20445;-71
2021/06/23 09:28:17;;;;;;;8.80;8.00;;;;;;;24.49;56.78;99552.81;5094983;28;20438;-71
2021/06/23 09:30:45;;;;;;;9.20;8.40;;;;;;;24.57;56.53;99551.06;5094540;28;20485;-73
2021/06/23 09:33:16;;;;;;;10.00;9.10;;;;;;;24.63;56.58;99556.69;5094230;28;20496;-73
2021/06/23 09:35:44;;;;;;;10.20;8.23;;;;;;;24.93;55.42;99545.81;5094059;28;20540;-71
2021/06/23 09:38:46;;;;;;;10.23;9.37;;;;;;;25.70;53.03;99553.09;5095391;28;20442;-70
2021/06/23 09:41:26;;;;;;;8.63;7.93;;;;;;;26.14;51.63;99544.88;5094727;28;20528;-72
2021/06/23 09:43:55;;;;;;;9.27;8.37;;;;;;;25.62;52.81;99544.91;5094544;28;20538;-72
2021/06/23 09:46:25;;;;;;;8.20;7.47;;;;;;;26.15;51.08;99545.75;5094539;28;20611;-73
2021/06/23 09:49:03;;;;;;;9.07;8.27;;;;;;;25.98;51.24;99545.94;5094261;28;20445;-73
2021/06/23 09:51:29;;;;;;;8.83;7.93;;;;;;;25.50;51.80;99548.13;5094724;28;20449;-72
2021/06/23 09:54:02;;;;;;;11.20;10.10;;;;;;;25.13;54.58;99546.19;5093958;28;20489;-71
2021/06/23 09:56:35;;;;;;;10.37;9.57;;;;;;;25.50;53.32;99534.34;5094295;28;20453;-71
2021/06/23 09:59:03;;;;;;;8.87;7.80;;;;;;;25.91;51.65;99538.59;5093388;28;20487;-72
2021/06/23 10:01:30;;;;;;;9.07;8.17;;;;;;;26.48;49.49;99535.13;5094621;28;20483;-71
2021/06/23 10:03:59;;;;;;;7.87;7.07;;;;;;;26.71;47.79;99539.69;5091951;28;20555;-72
2021/06/23 10:06:27;;;;;;;8.90;8.10;;;;;;;26.62;48.90;99544.47;5093405;28;21011;-71
2021/06/23 10:09:12;;;;;;;8.23;7.63;;;;;;;26.76;48.66;99531.66;5091813;28;20465;-71
2021/06/23 10:11:41;;;;;;;9.90;8.33;;;;;;;25.82;51.26;99534.19;5092117;28;20446;-72
2021/06/23 10:14:09;;;;;;;9.33;7.67;;;;;;;26.05;50.01;99532.25;5092398;28;20553;-73
2021/06/23 10:16:36;;;;;;;7.77;7.07;;;;;;;26.07;49.57;99532.03;5091962;28;20946;-71
2021/06/23 10:19:03;;;;;;;7.60;7.00;;;;;;;25.70;50.48;99526.38;5092767;28;20434;-72
2021/06/23 10:21:31;;;;;;;10.60;7.10;;;;;;;25.51;51.31;99524.19;5092224;28;20450;-71
2021/06/23 10:23:58;;;;;;;7.00;6.50;;;;;;;25.12;52.73;99528.81;5091557;28;20503;-72
2021/06/23 10:26:27;;;;;;;7.10;6.50;;;;;;;25.27;53.01;99526.13;5094084;28;20468;-70
2021/06/23 10:28:56;;;;;;;7.43;6.67;;;;;;;25.03;53.83;99529.03;5092688;28;20480;-71
2021/06/23 10:31:24;;;;;;;7.33;6.83;;;;;;;24.65;54.73;99520.72;5092663;28;20480;-71
2021/06/23 10:33:52;;;;;;;8.37;7.57;;;;;;;24.68;55.22;99521.22;5091943;28;20476;-71
2021/06/23 10:36:19;;;;;;;7.47;6.80;;;;;;;24.21;56.29;99522.13;5092765;28;20462;-72
2021/06/23 10:38:48;;;;;;;6.70;6.20;;;;;;;24.58;53.96;99515.09;5092129;28;20449;-73
2021/06/23 10:41:16;;;;;;;6.33;5.83;;;;;;;25.00;52.51;99513.75;5092449;28;20775;-71
2021/06/23 10:43:44;;;;;;;6.57;6.07;;;;;;;24.94;52.11;99512.59;5092894;28;20462;-71
2021/06/23 10:46:12;;;;;;;7.07;6.10;;;;;;;24.91;52.29;99514.84;5093017;28;20452;-71
2021/06/23 10:48:55;;;;;;;5.83;5.33;;;;;;;25.11;51.11;99507.81;5095798;28;20466;-72
2021/06/23 10:51:25;;;;;;;5.70;5.30;;;;;;;25.42;51.20;99512.38;5090479;28;20453;-72
2021/06/23 10:53:52;;;;;;;6.30;5.67;;;;;;;25.38;51.94;99508.28;5089994;28;20842;-72
2021/06/23 10:56:40;;;;;;;5.90;5.33;;;;;;;25.02;52.53;99517.19;5093980;28;20441;-72
2021/06/23 10:59:31;;;;;;;6.17;5.70;;;;;;;25.50;50.65;99520.56;5093640;28;20442;-70
2021/06/23 11:02:10;;;;;;;6.27;5.67;;;;;;;25.77;49.99;99532.84;5089959;28;20430;-72
2021/06/23 11:05:21;;;;;;;6.30;5.63;;;;;;;25.77;48.36;99526.50;5093746;28;20970;-72
2021/06/23 11:07:48;;;;;;;5.33;4.93;;;;;;;26.20;47.98;99526.69;5093708;28;20440;-72
2021/06/23 11:10:34;;;;;;;4.90;4.50;;;;;;;26.14;47.72;99527.44;5094191;28;20544;-70
2021/06/23 11:13:03;;;;;;;5.17;4.67;;;;;;;25.60;48.47;99520.31;5091895;28;20489;-72
2021/06/23 11:15:38;;;;;;;4.97;4.67;;;;;;;25.46;49.41;99518.38;5094066;28;20438;-72
2021/06/23 11:18:27;;;;;;;5.20;4.67;;;;;;;25.44;49.66;99515.81;5093017;28;20449;-72
2021/06/23 11:20:56;;;;;;;6.27;5.77;;;;;;;25.15;50.50;99522.94;5093712;28;20474;-70
2021/06/23 11:23:43;;;;;;;7.60;6.27;;;;;;;25.37;50.36;99512.94;5093190;28;20533;-72
2021/06/23 11:26:30;;;;;;;5.50;5.10;;;;;;;25.48;49.33;99521.78;5093849;28;20549;-71
2021/06/23 11:28:58;;;;;;;5.40;5.00;;;;;;;25.76;48.73;99522.88;5092404;28;20526;-70
2021/06/23 11:31:42;;;;;;;7.50;5.33;;;;;;;25.87;47.67;99524.34;5093852;28;20900;-71
2021/06/23 11:34:11;;;;;;;5.90;5.30;;;;;;;26.35;46.87;99535.81;5092493;28;20473;-73
2021/06/23 11:36:38;;;;;;;5.23;4.77;;;;;;;26.81;45.55;99524.47;5092997;28;20529;-72
2021/06/23 11:39:07;;;;;;;7.27;5.27;;;;;;;26.99;44.91;99529.53;5091337;28;20862;-70
2021/06/23 11:41:34;;;;;;;5.90;5.50;;;;;;;27.03;44.91;99533.63;5091617;28;20446;-71
2021/06/23 11:44:00;;;;;;;5.60;5.10;;;;;;;27.29;44.04;99523.03;5092655;28;20545;-70